createdAt,value
2018-06-15T00:02:30.478Z,15.52
2018-06-15T00:19:59.335Z,15.16
2018-06-15T00:22:36.917Z,15.12
2018-06-15T00:25:16.063Z,15.10
2018-06-15T00:27:56.120Z,15.08
2018-06-15T00:30:35.986Z,15.06
2018-06-15T00:33:15.838Z,15.06
2018-06-15T00:35:59.760Z,15.04
2018-06-15T00:38:41.920Z,14.99
2018-06-15T00:41:19.753Z,14.93
2018-06-15T00:44:02.356Z,14.89
2018-06-15T00:46:43.156Z,14.86
2018-06-15T00:49:22.698Z,14.84
2018-06-15T00:52:03.557Z,14.81
2018-06-15T00:54:45.321Z,14.81
2018-06-15T00:57:36.117Z,14.76
2018-06-15T01:00:15.917Z,14.69
2018-06-15T01:02:55.821Z,14.65
2018-06-15T01:05:35.698Z,14.62
2018-06-15T01:08:21.799Z,14.59
2018-06-15T01:11:02.220Z,14.57
2018-06-15T01:13:47.921Z,14.54
2018-06-15T01:16:26.879Z,14.47
2018-06-15T01:19:07.428Z,14.42
2018-06-15T02:36:14.114Z,14.18
2018-06-15T02:38:58.315Z,14.20
2018-06-15T02:41:43.133Z,14.20
2018-06-15T02:44:32.209Z,14.22
2018-06-15T02:47:14.410Z,14.24
2018-06-15T02:49:54.593Z,14.24
2018-06-15T02:52:35.049Z,14.25
2018-06-15T02:55:15.973Z,14.24
2018-06-15T02:57:55.949Z,14.24
2018-06-15T03:00:35.174Z,14.26
2018-06-15T03:03:22.755Z,14.25
2018-06-15T03:06:03.833Z,14.21
2018-06-15T03:08:43.075Z,14.21
2018-06-15T03:11:23.712Z,14.24
2018-06-15T03:14:03.991Z,14.23
2018-06-15T03:16:42.096Z,14.23
2018-06-15T03:19:31.056Z,14.24
2018-06-15T03:22:12.814Z,14.23
2018-06-15T03:24:58.312Z,14.20
2018-06-15T03:27:42.522Z,14.20
2018-06-15T03:30:22.893Z,14.18
2018-06-15T03:33:02.294Z,14.14
2018-06-15T03:35:43.060Z,14.24
2018-06-15T03:38:23.014Z,14.27
2018-06-15T03:41:10.672Z,14.24
2018-06-15T03:43:47.794Z,14.19
2018-06-15T03:46:28.230Z,14.17
2018-06-15T03:49:07.873Z,14.17
2018-06-15T03:51:46.090Z,14.17
2018-06-15T03:54:23.927Z,14.19
2018-06-15T03:57:02.863Z,14.22
2018-06-15T03:59:46.448Z,14.26
2018-06-15T04:02:24.137Z,14.30
2018-06-15T04:05:05.257Z,14.32
2018-06-15T04:07:43.003Z,14.29
2018-06-15T04:10:23.453Z,14.28
2018-06-15T04:13:11.508Z,14.32
2018-06-15T04:15:50.472Z,14.38
2018-06-15T04:18:28.516Z,14.46
2018-06-15T04:21:08.831Z,14.54
2018-06-15T04:23:49.794Z,14.56
2018-06-15T04:26:28.334Z,14.60
2018-06-15T04:29:08.542Z,14.69
2018-06-15T04:31:54.578Z,14.76
2018-06-15T04:34:35.100Z,14.82
2018-06-15T04:37:16.497Z,14.88
2018-06-15T04:39:57.253Z,14.97
2018-06-15T04:42:39.556Z,15.06
2018-06-15T04:45:24.218Z,15.16
2018-06-15T04:48:02.336Z,15.20
2018-06-15T04:50:41.554Z,15.23
2018-06-15T04:53:22.076Z,15.24
2018-06-15T04:56:05.955Z,15.31
2018-06-15T04:58:45.176Z,15.35
2018-06-15T14:10:30.362Z,28.33
2018-06-15T14:13:15.083Z,28.56
2018-06-15T14:15:58.216Z,28.72
2018-06-15T14:18:49.620Z,28.93
2018-06-15T14:21:40.441Z,29.05
2018-06-15T14:24:19.278Z,29.19
2018-06-15T14:27:07.923Z,29.34
2018-06-15T14:29:46.136Z,29.32
2018-06-15T14:32:35.684Z,29.30
2018-06-15T14:35:13.525Z,29.35
2018-06-15T14:54:27.592Z,27.34
2018-06-15T14:57:16.270Z,27.26
2018-06-15T14:59:58.344Z,27.34
2018-06-15T15:02:38.380Z,27.45
2018-06-15T15:05:21.777Z,27.62
2018-06-15T15:08:03.135Z,27.72
2018-06-15T15:10:39.974Z,27.74
2018-06-15T15:13:19.569Z,27.50
2018-06-15T15:15:57.095Z,27.25
2018-06-15T15:18:38.038Z,27.06
2018-06-15T15:21:24.815Z,27.08
2018-06-15T15:24:02.640Z,27.21
2018-06-15T15:26:41.395Z,27.37
2018-06-15T15:29:24.044Z,27.55
2018-06-15T15:32:06.892Z,27.69
2018-06-15T15:34:49.454Z,27.65
2018-06-15T15:37:27.191Z,27.45
2018-06-15T15:40:22.360Z,27.26
2018-06-15T15:43:17.534Z,27.05
2018-06-15T15:46:09.497Z,26.91
2018-06-15T15:49:03.932Z,26.79
2018-06-15T15:51:58.988Z,26.63
2018-06-15T15:54:38.693Z,26.52
2018-06-15T15:57:20.876Z,26.40
2018-06-15T16:00:02.801Z,26.33
2018-06-15T16:02:41.472Z,26.40
2018-06-15T16:05:21.401Z,26.49
2018-06-15T16:08:02.877Z,26.41
2018-06-15T16:10:48.549Z,26.40
2018-06-15T16:13:31.896Z,26.38
2018-06-15T16:16:13.795Z,26.30
2018-06-15T16:18:52.012Z,26.24
2018-06-15T16:21:31.073Z,26.13
2018-06-15T16:24:12.956Z,26.04
2018-06-15T16:29:51.776Z,25.83
2018-06-15T16:32:32.653Z,25.78
2018-06-15T16:35:13.714Z,25.77
2018-06-15T16:37:54.759Z,25.70
2018-06-15T16:40:32.652Z,25.60
2018-06-15T16:43:13.297Z,25.52
2018-06-15T16:45:53.473Z,25.49
2018-06-15T16:48:32.520Z,25.47
2018-06-15T16:51:11.932Z,25.45
2018-06-15T16:53:48.850Z,25.45
2018-06-15T16:56:31.277Z,25.44
2018-06-15T16:59:11.718Z,25.41
2018-06-15T17:01:54.422Z,25.36
2018-06-15T17:04:35.096Z,25.35
2018-06-15T17:36:39.281Z,23.69
2018-06-15T17:39:22.871Z,23.64
2018-06-15T17:42:05.615Z,23.57
2018-06-15T17:44:50.716Z,23.50
2018-06-15T17:47:30.668Z,23.42
2018-06-15T17:50:08.013Z,23.35
2018-06-15T17:52:45.936Z,23.30
2018-06-15T17:55:25.553Z,23.29
2018-06-15T17:58:08.275Z,23.28
2018-06-15T18:00:54.114Z,23.28
2018-06-15T18:03:35.501Z,23.27
2018-06-15T18:06:13.776Z,23.25
2018-06-15T18:08:56.453Z,23.23
2018-06-15T18:11:35.872Z,23.19
2018-06-15T18:14:18.095Z,23.15
2018-06-15T18:16:58.656Z,23.12
2018-06-15T18:19:38.892Z,23.07
2018-06-15T18:22:19.016Z,23.01
2018-06-15T18:24:58.090Z,22.96
2018-06-15T18:27:34.092Z,22.91
2018-06-15T18:30:16.035Z,22.86
2018-06-15T18:32:56.637Z,22.82
2018-06-15T18:35:35.297Z,22.75
2018-06-15T18:38:15.970Z,22.70
2018-06-15T18:40:54.957Z,22.64
2018-06-15T18:43:35.451Z,22.58
2018-06-15T18:46:13.475Z,22.52
2018-06-15T18:48:53.930Z,22.46
2018-06-15T18:51:38.114Z,22.39
2018-06-15T18:54:18.314Z,22.31
2018-06-15T18:57:05.231Z,22.25
2018-06-15T18:59:44.557Z,22.16
2018-06-15T19:02:24.728Z,22.09
2018-06-15T19:05:08.195Z,22.02
2018-06-15T19:07:50.011Z,21.93
2018-06-15T19:10:30.174Z,21.84
2018-06-15T19:13:10.056Z,21.78
2018-06-15T19:15:48.231Z,21.68
2018-06-15T19:18:30.036Z,21.60
2018-06-15T19:21:10.993Z,21.50
2018-06-15T19:24:00.049Z,21.43
2018-06-15T19:26:41.312Z,21.31
2018-06-15T19:29:21.815Z,21.23
2018-06-15T19:32:01.015Z,21.15
2018-06-15T19:34:43.103Z,21.02
2018-06-15T19:37:21.556Z,20.90
2018-06-15T19:40:00.192Z,20.83
2018-06-15T19:42:39.883Z,20.75
2018-06-15T19:45:21.669Z,20.65
2018-06-15T19:48:01.896Z,20.56
2018-06-15T19:50:41.533Z,20.49
2018-06-15T19:53:22.923Z,20.42
2018-06-15T19:56:00.086Z,20.31
2018-06-15T19:58:40.717Z,20.22
2018-06-15T20:01:23.753Z,20.13
2018-06-15T20:04:04.880Z,20.08
2018-06-15T20:06:48.971Z,20.05
2018-06-15T20:09:28.991Z,19.98
2018-06-15T20:12:06.935Z,19.89
2018-06-15T20:14:44.319Z,19.78
2018-06-15T20:17:23.276Z,19.74
2018-06-15T20:20:00.977Z,19.70
2018-06-15T20:22:38.475Z,19.63
2018-06-15T20:25:19.616Z,19.57
2018-06-15T20:27:58.851Z,19.51
2018-06-15T20:30:45.751Z,19.48
2018-06-15T20:33:26.236Z,19.42
2018-06-15T20:36:06.259Z,19.38
2018-06-15T20:38:49.332Z,19.33
2018-06-15T20:41:31.312Z,19.29
2018-06-15T20:44:11.090Z,19.21
2018-06-15T20:46:53.994Z,19.19
2018-06-15T20:49:33.943Z,19.16
2018-06-15T20:52:15.812Z,19.14
2018-06-15T20:54:56.351Z,19.12
2018-06-15T20:57:40.059Z,19.07
2018-06-15T21:00:19.861Z,19.01
2018-06-15T21:02:58.293Z,18.96
2018-06-15T22:33:13.029Z,17.39
2018-06-15T22:35:53.379Z,17.34
2018-06-15T22:38:34.388Z,17.33
2018-06-15T22:41:18.259Z,17.29
2018-06-15T22:43:56.996Z,17.27
2018-06-15T22:46:38.357Z,17.25
2018-06-15T22:49:18.787Z,17.20
2018-06-15T22:52:03.813Z,17.17
2018-06-15T22:54:43.355Z,17.16
2018-06-15T22:57:25.489Z,17.14
2018-06-15T23:00:07.691Z,17.10
2018-06-15T23:02:47.631Z,17.05
2018-06-15T23:05:27.234Z,16.96
2018-06-15T23:08:06.992Z,16.88
2018-06-15T23:10:50.061Z,16.84
2018-06-15T23:13:32.114Z,16.87
2018-06-15T23:16:15.494Z,16.86
2018-06-15T23:18:56.270Z,16.84
2018-06-15T23:21:38.593Z,16.84
2018-06-15T23:24:20.494Z,16.83
2018-06-15T23:26:58.429Z,16.79
2018-06-15T23:29:39.192Z,16.75
2018-06-15T23:32:22.517Z,16.69
2018-06-15T23:35:03.100Z,16.59
2018-06-15T23:37:51.968Z,16.57
2018-06-15T23:40:39.297Z,16.60
2018-06-15T23:43:26.947Z,16.59
2018-06-15T23:46:06.934Z,16.58
2018-06-15T23:48:48.369Z,16.57
2018-06-15T23:51:33.429Z,16.59
2018-06-15T23:54:14.528Z,16.57
